Time;durP1;ratioP1;P1;durP2;ratioP2;P2;SDS_P1;SDS_P2;PMS_P1;PMS_P2;Temp;Humidity;BMP_temperature;BMP_pressure;BME280_temperature;BME280_humidity;BME280_pressure;Samples;Min_cycle;Max_cycle;Signal;HPM_P1;HPM_P2
2023/12/02 00:02:21;;;;;;;25.65;14.77;;;;;;;;;;4974970;28;20100;-86
2023/12/02 00:05:07;;;;;;;28.42;16.30;;;;;;;;;;4978110;28;20017;-85
2023/12/02 00:07:52;;;;;;;24.33;14.88;;;;;;;;;;4977872;28;20042;-86
2023/12/02 00:10:37;;;;;;;26.00;15.00;;;;;;;;;;4976729;28;20356;-85
2023/12/02 00:13:22;;;;;;;27.58;15.00;;;;;;;;;;4976595;28;20194;-85
2023/12/02 00:16:08;;;;;;;25.08;15.43;;;;;;;;;;4980083;28;20026;-85
2023/12/02 00:18:53;;;;;;;30.08;16.20;;;;;;;;;;4982682;28;20033;-84
2023/12/02 00:21:38;;;;;;;27.52;14.85;;;;;;;;;;4976022;28;20026;-84
2023/12/02 00:24:23;;;;;;;27.55;16.15;;;;;;;;;;4984807;28;20238;-83
2023/12/02 00:27:08;;;;;;;24.70;14.82;;;;;;;;;;4979732;28;20022;-83
2023/12/02 00:29:54;;;;;;;24.90;14.43;;;;;;;;;;4981488;28;20366;-84
2023/12/02 00:32:39;;;;;;;25.13;14.05;;;;;;;;;;4981613;28;20038;-84
2023/12/02 00:35:24;;;;;;;26.98;14.70;;;;;;;;;;4989909;28;20027;-83
2023/12/02 00:38:10;;;;;;;27.08;14.95;;;;;;;;;;4989416;28;20059;-84
2023/12/02 00:40:55;;;;;;;28.42;15.13;;;;;;;;;;4967647;28;20088;-84
2023/12/02 00:43:40;;;;;;;26.13;14.52;;;;;;;;;;4978776;28;20142;-84
2023/12/02 00:46:25;;;;;;;24.10;13.82;;;;;;;;;;4976160;28;20030;-85
2023/12/02 00:49:11;;;;;;;24.33;13.77;;;;;;;;;;4974393;28;20061;-85
2023/12/02 00:51:56;;;;;;;26.50;15.15;;;;;;;;;;4982196;28;20030;-84
2023/12/02 00:54:41;;;;;;;25.85;15.40;;;;;;;;;;4977832;28;20172;-85
2023/12/02 00:57:29;;;;;;;26.63;14.45;;;;;;;;;;4986741;28;20536;-86
2023/12/02 01:00:15;;;;;;;23.60;14.65;;;;;;;;;;4984840;28;20042;-86
2023/12/02 01:03:00;;;;;;;28.40;15.75;;;;;;;;;;4977409;28;20101;-86
2023/12/02 01:05:45;;;;;;;26.15;14.27;;;;;;;;;;4976356;28;20033;-85
2023/12/02 01:08:31;;;;;;;28.70;15.93;;;;;;;;;;4966994;28;20043;-86
2023/12/02 01:11:16;;;;;;;27.67;15.20;;;;;;;;;;4982761;28;20029;-85
2023/12/02 01:14:01;;;;;;;33.60;17.25;;;;;;;;;;4991134;28;20333;-85
2023/12/02 01:16:46;;;;;;;27.98;16.00;;;;;;;;;;4972925;28;20125;-84
2023/12/02 01:19:32;;;;;;;26.80;15.35;;;;;;;;;;4983302;28;20494;-85
2023/12/02 01:22:17;;;;;;;24.75;14.77;;;;;;;;;;4972003;28;20112;-85
2023/12/02 01:25:02;;;;;;;26.02;15.07;;;;;;;;;;4989533;28;20026;-85
2023/12/02 01:27:47;;;;;;;26.70;15.30;;;;;;;;;;5003021;28;20022;-84
2023/12/02 01:30:32;;;;;;;26.52;14.85;;;;;;;;;;4985274;28;20109;-85
2023/12/02 01:33:18;;;;;;;26.33;15.57;;;;;;;;;;4976457;28;20278;-85
2023/12/02 01:36:04;;;;;;;27.02;15.25;;;;;;;;;;4976486;28;20041;-85
2023/12/02 01:38:49;;;;;;;25.15;14.05;;;;;;;;;;4986686;28;20034;-85
2023/12/02 01:41:34;;;;;;;26.63;15.70;;;;;;;;;;4985228;28;20088;-84
2023/12/02 01:44:19;;;;;;;25.35;14.60;;;;;;;;;;4980959;28;20066;-85
2023/12/02 01:47:05;;;;;;;26.08;14.65;;;;;;;;;;4979436;28;20384;-86
2023/12/02 01:49:50;;;;;;;22.98;12.90;;;;;;;;;;4985197;28;20050;-85
2023/12/02 01:52:35;;;;;;;26.30;15.63;;;;;;;;;;4988388;28;20026;-85
2023/12/02 01:55:21;;;;;;;24.25;14.85;;;;;;;;;;4983707;28;20083;-85
2023/12/02 01:58:06;;;;;;;26.67;14.60;;;;;;;;;;4980884;28;20069;-85
2023/12/02 02:00:51;;;;;;;23.63;14.10;;;;;;;;;;4987691;28;20038;-85
2023/12/02 02:03:37;;;;;;;22.92;14.43;;;;;;;;;;4986680;28;20034;-85
2023/12/02 02:06:22;;;;;;;27.42;15.68;;;;;;;;;;4976705;28;20209;-85
2023/12/02 02:09:08;;;;;;;26.08;14.05;;;;;;;;;;4982878;28;20068;-85
2023/12/02 02:11:53;;;;;;;28.00;13.70;;;;;;;;;;4984597;28;20026;-85
2023/12/02 02:14:38;;;;;;;25.08;14.23;;;;;;;;;;4984113;28;20038;-84
2023/12/02 02:17:24;;;;;;;29.17;15.60;;;;;;;;;;4985664;28;20087;-84
2023/12/02 02:20:09;;;;;;;26.77;14.43;;;;;;;;;;4978165;28;20045;-85
2023/12/02 02:22:54;;;;;;;26.98;14.30;;;;;;;;;;4983391;28;20278;-86
2023/12/02 02:25:40;;;;;;;24.85;14.43;;;;;;;;;;4982581;28;20104;-85
2023/12/02 02:28:26;;;;;;;26.98;15.38;;;;;;;;;;4974263;28;20477;-84
2023/12/02 02:31:11;;;;;;;24.92;13.90;;;;;;;;;;4980089;28;20060;-84
2023/12/02 02:33:56;;;;;;;26.30;14.90;;;;;;;;;;4977080;28;20030;-86
2023/12/02 02:36:42;;;;;;;26.45;15.23;;;;;;;;;;4979135;28;20018;-86
2023/12/02 02:39:27;;;;;;;26.20;14.18;;;;;;;;;;4986058;28;20026;-86
2023/12/02 02:42:12;;;;;;;26.08;14.27;;;;;;;;;;4986773;28;20185;-85
2023/12/02 02:44:57;;;;;;;25.10;13.40;;;;;;;;;;4976820;28;20026;-85
2023/12/02 02:47:43;;;;;;;26.80;16.58;;;;;;;;;;4978768;28;20503;-85
2023/12/02 02:50:28;;;;;;;26.08;14.85;;;;;;;;;;4979105;28;20019;-86
2023/12/02 02:53:13;;;;;;;24.00;13.90;;;;;;;;;;4972861;28;20403;-85
2023/12/02 02:55:58;;;;;;;27.55;15.07;;;;;;;;;;4982460;28;20029;-85
2023/12/02 02:58:43;;;;;;;24.15;15.18;;;;;;;;;;4987460;28;20558;-84
2023/12/02 03:01:29;;;;;;;24.60;14.15;;;;;;;;;;4983769;28;20516;-84
2023/12/02 03:04:14;;;;;;;26.00;14.38;;;;;;;;;;4983140;28;20042;-85
2023/12/02 03:07:00;;;;;;;26.17;15.07;;;;;;;;;;4991228;28;20025;-83
2023/12/02 03:09:45;;;;;;;22.23;12.82;;;;;;;;;;4984650;28;20037;-85
2023/12/02 03:12:30;;;;;;;23.08;12.20;;;;;;;;;;4978950;28;20030;-85
2023/12/02 03:15:16;;;;;;;24.98;13.93;;;;;;;;;;4992864;28;20366;-85
2023/12/02 03:18:01;;;;;;;23.80;12.40;;;;;;;;;;4983926;28;20022;-84
2023/12/02 03:20:46;;;;;;;23.52;12.98;;;;;;;;;;4986105;28;20041;-85
2023/12/02 03:23:31;;;;;;;22.27;12.15;;;;;;;;;;4990547;28;20026;-85
2023/12/02 03:26:17;;;;;;;22.75;12.77;;;;;;;;;;4982073;28;20026;-86
2023/12/02 03:29:03;;;;;;;21.45;12.10;;;;;;;;;;4976499;28;20055;-86
2023/12/02 03:31:48;;;;;;;20.73;11.88;;;;;;;;;;4975550;28;20048;-84
2023/12/02 03:34:34;;;;;;;22.63;12.48;;;;;;;;;;4986846;28;20084;-85
2023/12/02 03:37:19;;;;;;;22.20;12.65;;;;;;;;;;4972143;28;20026;-84
2023/12/02 03:40:05;;;;;;;26.15;14.27;;;;;;;;;;4985350;28;20037;-84
2023/12/02 03:42:50;;;;;;;21.63;11.15;;;;;;;;;;4991724;28;20025;-85
2023/12/02 03:45:35;;;;;;;22.27;12.48;;;;;;;;;;4983322;28;20043;-86
2023/12/02 03:48:21;;;;;;;21.52;11.05;;;;;;;;;;5000814;28;20114;-84
2023/12/02 03:51:06;;;;;;;24.23;12.60;;;;;;;;;;4984742;28;20038;-84
2023/12/02 03:53:52;;;;;;;23.38;12.55;;;;;;;;;;4982202;28;20093;-85
2023/12/02 03:56:38;;;;;;;22.33;12.15;;;;;;;;;;4975321;28;20061;-85
2023/12/02 03:59:24;;;;;;;23.77;13.02;;;;;;;;;;4982091;28;20038;-85
2023/12/02 04:02:09;;;;;;;24.73;12.43;;;;;;;;;;4981075;28;20022;-84
2023/12/02 04:04:54;;;;;;;23.05;12.93;;;;;;;;;;4974893;28;20038;-84
2023/12/02 04:07:39;;;;;;;20.52;10.80;;;;;;;;;;4982971;28;20109;-85
2023/12/02 04:10:25;;;;;;;20.20;11.57;;;;;;;;;;4982840;28;20076;-85
2023/12/02 04:13:10;;;;;;;18.80;10.80;;;;;;;;;;4970933;28;20030;-84
2023/12/02 04:15:55;;;;;;;20.08;11.40;;;;;;;;;;4987181;28;20028;-85
2023/12/02 04:18:41;;;;;;;19.02;9.63;;;;;;;;;;4981217;28;20044;-85
2023/12/02 04:21:26;;;;;;;19.50;11.00;;;;;;;;;;4976232;28;20026;-85
2023/12/02 04:24:12;;;;;;;18.20;10.70;;;;;;;;;;4974097;28;20030;-85
2023/12/02 04:26:57;;;;;;;17.92;10.65;;;;;;;;;;4982023;28;20049;-85
2023/12/02 04:29:42;;;;;;;18.70;10.65;;;;;;;;;;4981588;28;20387;-85
2023/12/02 04:32:27;;;;;;;16.30;10.05;;;;;;;;;;4975757;28;20026;-85
2023/12/02 04:35:13;;;;;;;16.25;9.75;;;;;;;;;;4966784;28;20049;-85
2023/12/02 04:37:58;;;;;;;16.90;9.40;;;;;;;;;;4972313;28;20069;-84
2023/12/02 04:40:43;;;;;;;19.27;8.63;;;;;;;;;;4986825;28;20068;-84
2023/12/02 04:43:28;;;;;;;16.90;9.88;;;;;;;;;;4996979;28;20100;-88
2023/12/02 04:46:14;;;;;;;16.52;9.75;;;;;;;;;;4974889;28;20034;-88
2023/12/02 04:48:59;;;;;;;14.73;8.68;;;;;;;;;;4978220;28;20017;-87
2023/12/02 04:51:44;;;;;;;17.20;9.38;;;;;;;;;;4976355;28;20500;-88
2023/12/02 04:54:29;;;;;;;18.13;9.07;;;;;;;;;;4974417;28;20022;-87
2023/12/02 04:57:15;;;;;;;17.90;9.55;;;;;;;;;;4993968;28;20040;-88
2023/12/02 05:00:00;;;;;;;18.33;10.50;;;;;;;;;;4976824;28;20034;-89
2023/12/02 05:02:49;;;;;;;17.42;10.13;;;;;;;;;;4973588;28;20092;-90
2023/12/02 05:05:34;;;;;;;16.80;8.80;;;;;;;;;;4958061;28;20521;-88
2023/12/02 05:08:19;;;;;;;15.38;8.00;;;;;;;;;;4972844;28;20053;-88
2023/12/02 05:11:05;;;;;;;16.15;8.88;;;;;;;;;;4973888;28;20566;-89
2023/12/02 05:13:53;;;;;;;14.75;8.32;;;;;;;;;;4992470;28;20041;-90
2023/12/02 05:16:42;;;;;;;14.43;7.88;;;;;;;;;;4998205;28;20030;-89
2023/12/02 05:19:28;;;;;;;15.20;8.90;;;;;;;;;;4990390;28;20086;-89
2023/12/02 05:22:13;;;;;;;15.52;8.48;;;;;;;;;;4982113;28;20046;-87
2023/12/02 05:24:58;;;;;;;16.42;9.18;;;;;;;;;;4998222;28;20061;-89
2023/12/02 05:27:43;;;;;;;15.57;9.07;;;;;;;;;;4999497;28;20007;-89
2023/12/02 05:30:29;;;;;;;15.20;9.52;;;;;;;;;;4996712;28;20046;-90
2023/12/02 05:33:14;;;;;;;14.57;8.07;;;;;;;;;;4996362;28;20042;-90
2023/12/02 05:35:59;;;;;;;14.80;8.77;;;;;;;;;;4976837;28;20056;-90
2023/12/02 05:38:45;;;;;;;15.27;9.50;;;;;;;;;;4962475;28;20109;-89
2023/12/02 05:41:30;;;;;;;15.18;8.57;;;;;;;;;;4976501;28;20026;-88
2023/12/02 05:44:21;;;;;;;13.95;9.00;;;;;;;;;;4977210;28;20046;-92
2023/12/02 05:47:10;;;;;;;15.07;9.20;;;;;;;;;;4964600;28;20773;-90
2023/12/02 05:53:05;;;;;;;;;;;;;;;;;;4953645;28;20513;-91
2023/12/02 05:55:53;;;;;;;14.88;8.55;;;;;;;;;;4987633;28;19971;-89
2023/12/02 05:58:41;;;;;;;16.55;10.02;;;;;;;;;;4978377;28;20040;-90
2023/12/02 06:01:28;;;;;;;15.20;8.23;;;;;;;;;;4998449;28;20080;-89
2023/12/02 06:04:14;;;;;;;16.92;9.32;;;;;;;;;;4972500;28;20022;-90
2023/12/02 06:06:59;;;;;;;14.80;8.40;;;;;;;;;;4986360;28;20033;-89
2023/12/02 06:09:45;;;;;;;14.18;8.60;;;;;;;;;;4967703;28;20384;-90
2023/12/02 06:12:35;;;;;;;15.75;9.27;;;;;;;;;;4987862;28;20033;-90
2023/12/02 06:15:20;;;;;;;14.52;8.60;;;;;;;;;;4990902;28;20029;-90
2023/12/02 06:18:06;;;;;;;17.65;9.35;;;;;;;;;;4988012;28;20046;-91
2023/12/02 06:20:51;;;;;;;15.70;8.93;;;;;;;;;;4994646;28;20039;-91
2023/12/02 06:23:37;;;;;;;18.67;10.40;;;;;;;;;;4987145;28;20026;-87
2023/12/02 06:26:22;;;;;;;15.68;9.35;;;;;;;;;;4983407;28;20038;-89
2023/12/02 06:29:08;;;;;;;15.75;9.00;;;;;;;;;;4978989;28;20465;-87
2023/12/02 06:31:53;;;;;;;15.32;7.93;;;;;;;;;;4984222;28;20042;-88
2023/12/02 06:34:39;;;;;;;17.70;9.43;;;;;;;;;;4957761;28;20639;-89
2023/12/02 06:37:24;;;;;;;12.63;7.70;;;;;;;;;;4980729;28;20041;-89
2023/12/02 06:40:09;;;;;;;16.13;10.40;;;;;;;;;;4986688;28;20033;-86
2023/12/02 06:42:55;;;;;;;12.85;8.20;;;;;;;;;;4973606;28;20136;-86
2023/12/02 06:45:40;;;;;;;15.40;8.50;;;;;;;;;;4979460;28;20037;-87
2023/12/02 06:48:25;;;;;;;15.23;8.18;;;;;;;;;;4983321;28;20069;-87
2023/12/02 06:51:11;;;;;;;15.68;9.23;;;;;;;;;;4963419;28;20084;-88
2023/12/02 06:53:56;;;;;;;17.38;9.10;;;;;;;;;;4962742;28;20031;-86
2023/12/02 06:56:42;;;;;;;16.45;9.15;;;;;;;;;;4981893;28;20057;-85
2023/12/02 06:59:27;;;;;;;15.60;9.27;;;;;;;;;;4962809;28;20034;-85
2023/12/02 07:02:12;;;;;;;15.27;8.60;;;;;;;;;;4975814;28;20023;-85
2023/12/02 07:04:58;;;;;;;17.67;9.75;;;;;;;;;;4963922;28;20035;-87
2023/12/02 07:07:43;;;;;;;17.42;9.73;;;;;;;;;;4979338;28;20052;-88
2023/12/02 07:10:28;;;;;;;15.98;9.30;;;;;;;;;;4980701;28;20030;-88
2023/12/02 07:13:13;;;;;;;17.02;9.18;;;;;;;;;;4987719;28;20639;-88
2023/12/02 07:15:58;;;;;;;17.95;9.18;;;;;;;;;;4981731;28;20113;-85
2023/12/02 07:18:44;;;;;;;20.63;9.68;;;;;;;;;;4977700;28;20024;-85
2023/12/02 07:21:29;;;;;;;19.33;9.82;;;;;;;;;;4989379;28;20026;-85
2023/12/02 07:24:14;;;;;;;17.05;9.18;;;;;;;;;;4975127;28;20022;-88
2023/12/02 07:26:59;;;;;;;15.68;9.45;;;;;;;;;;4977372;28;20489;-89
2023/12/02 07:29:45;;;;;;;18.10;9.57;;;;;;;;;;4981065;28;20057;-88
2023/12/02 07:32:30;;;;;;;18.83;9.55;;;;;;;;;;4978978;28;20010;-89
2023/12/02 07:35:15;;;;;;;16.05;9.27;;;;;;;;;;4983531;28;20076;-88
2023/12/02 07:38:00;;;;;;;19.52;10.48;;;;;;;;;;4980904;28;20030;-88
2023/12/02 07:40:45;;;;;;;16.67;10.93;;;;;;;;;;4983669;28;20026;-88
2023/12/02 07:43:31;;;;;;;20.65;10.63;;;;;;;;;;4994859;28;20026;-88
2023/12/02 07:46:16;;;;;;;19.70;11.15;;;;;;;;;;4980837;28;20026;-85
2023/12/02 07:49:01;;;;;;;19.80;10.55;;;;;;;;;;4985849;28;20023;-86
2023/12/02 07:51:46;;;;;;;18.33;10.80;;;;;;;;;;4973574;28;20022;-86
2023/12/02 07:54:31;;;;;;;16.25;8.98;;;;;;;;;;4979536;28;20275;-86
2023/12/02 07:57:17;;;;;;;19.77;9.80;;;;;;;;;;4987711;28;20033;-86
2023/12/02 08:00:02;;;;;;;15.60;9.35;;;;;;;;;;4988387;28;20065;-85
2023/12/02 08:02:47;;;;;;;15.88;8.68;;;;;;;;;;4981101;28;20018;-89
2023/12/02 08:05:32;;;;;;;15.55;8.63;;;;;;;;;;4981609;28;20096;-86
2023/12/02 08:08:18;;;;;;;21.25;9.88;;;;;;;;;;4978799;28;20076;-87
2023/12/02 08:11:03;;;;;;;16.40;8.63;;;;;;;;;;4968650;28;20025;-87
2023/12/02 08:13:49;;;;;;;17.42;8.63;;;;;;;;;;4974479;28;20026;-88
2023/12/02 08:16:34;;;;;;;15.13;8.70;;;;;;;;;;4972551;28;20019;-89
2023/12/02 08:19:19;;;;;;;15.48;7.93;;;;;;;;;;4989448;28;20082;-88
2023/12/02 08:22:05;;;;;;;17.83;9.45;;;;;;;;;;4964657;28;20037;-86
2023/12/02 08:24:50;;;;;;;19.42;10.45;;;;;;;;;;4971526;28;20030;-89
2023/12/02 08:27:36;;;;;;;19.42;10.73;;;;;;;;;;4967945;28;20045;-88
2023/12/02 08:30:22;;;;;;;18.98;9.30;;;;;;;;;;4969255;28;20134;-89
2023/12/02 08:33:08;;;;;;;14.95;9.73;;;;;;;;;;4966470;28;20022;-90
2023/12/02 08:35:54;;;;;;;21.27;10.50;;;;;;;;;;4981248;28;20053;-91
2023/12/02 08:38:39;;;;;;;17.42;9.63;;;;;;;;;;4990399;28;20057;-89
2023/12/02 08:41:25;;;;;;;20.02;10.57;;;;;;;;;;4982094;28;20105;-88
2023/12/02 08:44:12;;;;;;;18.88;10.18;;;;;;;;;;4983285;28;20038;-93
2023/12/02 08:47:01;;;;;;;20.13;11.45;;;;;;;;;;4985580;28;20083;-90
2023/12/02 08:49:55;;;;;;;22.67;11.88;;;;;;;;;;4949143;28;20023;-79
2023/12/02 08:52:40;;;;;;;23.98;12.85;;;;;;;;;;4973555;28;20022;-79
2023/12/02 08:55:25;;;;;;;21.98;11.68;;;;;;;;;;4986445;28;20431;-76
2023/12/02 08:58:16;;;;;;;25.17;11.68;;;;;;;;;;4976986;28;20117;-84
2023/12/02 09:01:02;;;;;;;16.92;9.30;;;;;;;;;;4960879;28;20057;-84
2023/12/02 09:03:47;;;;;;;18.95;10.20;;;;;;;;;;4982996;28;20038;-83
2023/12/02 09:06:33;;;;;;;17.77;9.93;;;;;;;;;;4969208;28;20029;-83
2023/12/02 09:09:18;;;;;;;18.50;10.27;;;;;;;;;;4978736;28;20461;-81
2023/12/02 09:12:03;;;;;;;17.65;10.57;;;;;;;;;;4979450;28;20035;-83
2023/12/02 09:15:06;;;;;;;16.83;10.02;;;;;;;;;;4978598;28;20025;-82
2023/12/02 09:17:51;;;;;;;15.60;9.10;;;;;;;;;;4977108;28;20038;-81
2023/12/02 09:20:50;;;;;;;17.80;9.45;;;;;;;;;;4978454;28;20026;-81
2023/12/02 09:23:36;;;;;;;15.68;9.57;;;;;;;;;;4979546;28;20033;-81
2023/12/02 09:26:31;;;;;;;16.60;8.68;;;;;;;;;;4971790;28;20062;-81
2023/12/02 09:29:16;;;;;;;17.13;9.88;;;;;;;;;;4971296;28;20030;-80
2023/12/02 09:32:22;;;;;;;16.52;10.25;;;;;;;;;;4985757;28;20030;-81
2023/12/02 09:35:08;;;;;;;16.42;9.48;;;;;;;;;;4981287;28;20026;-81
2023/12/02 09:37:54;;;;;;;16.55;10.60;;;;;;;;;;4972009;28;20384;-80
2023/12/02 09:40:48;;;;;;;16.05;9.60;;;;;;;;;;4958929;28;20781;-82
2023/12/02 09:43:37;;;;;;;17.38;9.88;;;;;;;;;;4973394;28;20396;-83
2023/12/02 09:46:22;;;;;;;15.73;8.40;;;;;;;;;;4973048;28;20168;-84
2023/12/02 09:49:07;;;;;;;17.13;10.02;;;;;;;;;;4989553;28;20030;-82
2023/12/02 09:52:10;;;;;;;15.57;8.68;;;;;;;;;;4972368;28;20481;-80
2023/12/02 09:55:04;;;;;;;16.27;9.45;;;;;;;;;;4980560;28;20038;-84
2023/12/02 09:57:56;;;;;;;14.05;9.25;;;;;;;;;;4984776;28;20026;-83
2023/12/02 10:00:59;;;;;;;15.88;8.45;;;;;;;;;;4986492;28;20042;-87
2023/12/02 10:04:02;;;;;;;17.38;8.70;;;;;;;;;;4986959;28;20108;-83
2023/12/02 10:06:59;;;;;;;16.30;9.70;;;;;;;;;;4983664;28;20548;-85
2023/12/02 10:09:53;;;;;;;16.60;9.38;;;;;;;;;;4997760;28;20080;-81
2023/12/02 10:12:38;;;;;;;15.73;9.20;;;;;;;;;;4983927;28;20028;-81
2023/12/02 10:15:27;;;;;;;16.30;9.85;;;;;;;;;;5001157;28;20026;-82
2023/12/02 10:18:13;;;;;;;16.90;9.40;;;;;;;;;;4978647;28;20113;-80
2023/12/02 10:21:01;;;;;;;15.88;8.77;;;;;;;;;;4982770;28;20038;-80
2023/12/02 10:23:51;;;;;;;15.35;8.57;;;;;;;;;;4994875;28;20030;-82
2023/12/02 10:26:36;;;;;;;;;;;;;;;;;;4979159;28;20058;-82
2023/12/02 10:29:25;;;;;;;14.68;8.55;;;;;;;;;;4978047;28;20023;-82
2023/12/02 10:32:42;;;;;;;17.92;9.90;;;;;;;;;;4979359;28;20026;-81
2023/12/02 10:35:43;;;;;;;15.13;8.07;;;;;;;;;;4946536;28;20031;-81
2023/12/02 10:38:47;;;;;;;14.32;8.35;;;;;;;;;;4982392;28;20030;-80
2023/12/02 10:41:33;;;;;;;17.88;9.85;;;;;;;;;;4979484;28;20022;-81
2023/12/02 10:44:21;;;;;;;17.27;9.35;;;;;;;;;;4981676;28;20149;-82
2023/12/02 10:47:07;;;;;;;17.17;9.35;;;;;;;;;;4975553;28;20029;-80
2023/12/02 10:49:52;;;;;;;15.70;9.38;;;;;;;;;;4980314;28;20029;-81
2023/12/02 10:52:39;;;;;;;14.60;8.73;;;;;;;;;;4978922;28;20030;-82
2023/12/02 10:55:25;;;;;;;16.98;10.65;;;;;;;;;;4980224;28;20112;-81
2023/12/02 10:58:12;;;;;;;17.45;9.15;;;;;;;;;;4975411;28;20037;-80
2023/12/02 11:01:04;;;;;;;14.98;9.10;;;;;;;;;;4977539;28;20140;-80
2023/12/02 11:04:09;;;;;;;15.30;8.75;;;;;;;;;;4970100;28;20045;-79
2023/12/02 11:07:00;;;;;;;16.50;9.90;;;;;;;;;;4977298;28;20043;-79
2023/12/02 11:09:58;;;;;;;17.58;9.18;;;;;;;;;;4975190;28;20101;-79
2023/12/02 11:12:55;;;;;;;16.42;9.45;;;;;;;;;;4981223;28;20030;-79
2023/12/02 11:15:46;;;;;;;18.25;10.80;;;;;;;;;;4993035;28;20022;-78
2023/12/02 11:18:40;;;;;;;16.67;9.77;;;;;;;;;;4987760;28;20025;-81
2023/12/02 11:21:40;;;;;;;17.67;9.50;;;;;;;;;;4979000;28;20041;-78
2023/12/02 11:24:34;;;;;;;17.40;10.40;;;;;;;;;;4964300;28;20069;-78
2023/12/02 11:27:23;;;;;;;15.98;8.65;;;;;;;;;;4975595;28;20030;-80
2023/12/02 11:30:18;;;;;;;16.83;10.23;;;;;;;;;;4976947;28;20038;-81
2023/12/02 11:33:27;;;;;;;17.00;9.77;;;;;;;;;;4988233;28;20054;-79
2023/12/02 11:36:16;;;;;;;16.70;9.15;;;;;;;;;;4970638;28;20038;-80
2023/12/02 11:39:01;;;;;;;13.90;7.77;;;;;;;;;;4973624;28;20038;-79
2023/12/02 11:41:55;;;;;;;14.68;8.15;;;;;;;;;;4979174;28;20552;-79
2023/12/02 11:44:59;;;;;;;16.85;10.02;;;;;;;;;;4983895;28;20405;-78
2023/12/02 11:47:56;;;;;;;15.60;8.32;;;;;;;;;;4983936;28;20025;-78
2023/12/02 11:50:41;;;;;;;18.02;9.43;;;;;;;;;;4974963;28;20374;-79
2023/12/02 11:53:37;;;;;;;14.80;8.55;;;;;;;;;;4974231;28;20034;-79
2023/12/02 11:56:24;;;;;;;12.80;7.00;;;;;;;;;;4975431;28;20038;-79
2023/12/02 11:59:16;;;;;;;14.63;7.05;;;;;;;;;;4977610;28;20353;-79
2023/12/02 12:02:08;;;;;;;11.95;6.88;;;;;;;;;;4984619;28;20469;-79
2023/12/02 12:04:59;;;;;;;12.77;7.63;;;;;;;;;;4979969;28;20867;-80
2023/12/02 12:07:54;;;;;;;14.27;8.20;;;;;;;;;;4986102;28;20030;-81
2023/12/02 12:10:40;;;;;;;13.90;8.07;;;;;;;;;;4977884;28;20029;-85
2023/12/02 12:13:26;;;;;;;12.77;7.70;;;;;;;;;;4971040;28;20022;-83
2023/12/02 12:16:11;;;;;;;15.07;8.02;;;;;;;;;;4977756;28;20046;-84
2023/12/02 12:18:58;;;;;;;14.02;7.68;;;;;;;;;;4975220;28;20030;-84
2023/12/02 12:21:44;;;;;;;12.65;7.80;;;;;;;;;;4981408;28;20465;-82
2023/12/02 12:24:29;;;;;;;11.77;6.97;;;;;;;;;;4991325;28;20092;-86
2023/12/02 12:27:15;;;;;;;12.20;7.35;;;;;;;;;;4982153;28;20041;-86
2023/12/02 12:30:00;;;;;;;12.30;7.15;;;;;;;;;;4976126;28;20413;-88
2023/12/02 12:32:48;;;;;;;12.77;6.90;;;;;;;;;;4961840;28;20331;-86
2023/12/02 12:35:33;;;;;;;12.18;6.00;;;;;;;;;;4954775;28;20054;-86
2023/12/02 12:38:20;;;;;;;14.25;6.63;;;;;;;;;;4980060;28;20064;-85
2023/12/02 12:41:05;;;;;;;11.63;6.53;;;;;;;;;;4980658;28;20087;-85
2023/12/02 12:43:51;;;;;;;14.38;7.78;;;;;;;;;;4978848;28;20033;-86
2023/12/02 12:46:37;;;;;;;13.82;7.35;;;;;;;;;;4974056;28;20030;-86
2023/12/02 12:49:24;;;;;;;12.70;7.88;;;;;;;;;;4978638;28;20049;-86
2023/12/02 12:52:12;;;;;;;13.88;7.47;;;;;;;;;;4973333;28;20026;-84
2023/12/02 12:54:58;;;;;;;13.50;6.88;;;;;;;;;;4978098;28;20363;-85
2023/12/02 12:57:49;;;;;;;11.55;6.70;;;;;;;;;;4982657;28;20115;-86
2023/12/02 13:00:39;;;;;;;11.38;6.78;;;;;;;;;;4987561;28;20085;-87
2023/12/02 13:03:28;;;;;;;9.77;6.57;;;;;;;;;;4972324;28;20035;-83
2023/12/02 13:06:15;;;;;;;11.03;6.03;;;;;;;;;;4977997;28;20089;-82
2023/12/02 13:09:00;;;;;;;13.30;7.88;;;;;;;;;;4975361;28;20076;-83
2023/12/02 13:11:48;;;;;;;12.30;6.05;;;;;;;;;;4970667;28;20030;-84
2023/12/02 13:14:39;;;;;;;12.73;7.20;;;;;;;;;;4971818;28;20401;-83
2023/12/02 13:17:25;;;;;;;14.32;6.80;;;;;;;;;;4995457;28;20007;-85
2023/12/02 13:20:11;;;;;;;11.52;5.70;;;;;;;;;;4985195;28;20030;-83
2023/12/02 13:23:01;;;;;;;10.20;6.18;;;;;;;;;;4992313;28;20105;-84
2023/12/02 13:25:46;;;;;;;10.23;6.05;;;;;;;;;;4990414;28;20102;-81
2023/12/02 13:28:37;;;;;;;10.85;5.75;;;;;;;;;;4988030;28;20058;-82
2023/12/02 13:31:22;;;;;;;;;;;;;;;;;;4982318;28;20050;-84
2023/12/02 13:34:29;;;;;;;9.48;5.25;;;;;;;;;;4979875;28;19916;-84
2023/12/02 13:37:15;;;;;;;10.93;5.82;;;;;;;;;;4972049;28;20038;-84
2023/12/02 13:40:00;;;;;;;10.95;6.20;;;;;;;;;;4961265;28;20191;-83
2023/12/02 13:42:47;;;;;;;12.07;5.85;;;;;;;;;;4986994;28;20037;-80
2023/12/02 13:45:32;;;;;;;9.70;5.43;;;;;;;;;;4981624;28;20057;-83
2023/12/02 13:48:22;;;;;;;9.07;5.20;;;;;;;;;;4977725;28;20030;-86
2023/12/02 13:51:25;;;;;;;10.52;6.20;;;;;;;;;;4977696;28;20075;-86
2023/12/02 13:54:31;;;;;;;10.13;5.60;;;;;;;;;;4988363;28;20532;-87
2023/12/02 13:57:40;;;;;;;11.18;5.32;;;;;;;;;;4974378;28;20022;-85
2023/12/02 14:00:37;;;;;;;9.68;5.50;;;;;;;;;;4988267;28;20026;-85
2023/12/02 14:03:32;;;;;;;9.27;5.28;;;;;;;;;;4982870;28;20069;-82
2023/12/02 14:06:19;;;;;;;10.25;5.28;;;;;;;;;;4990409;28;20468;-83
2023/12/02 14:09:06;;;;;;;10.18;6.07;;;;;;;;;;4977596;28;20019;-86
2023/12/02 14:12:01;;;;;;;11.75;6.15;;;;;;;;;;4976938;28;20033;-87
2023/12/02 14:15:01;;;;;;;10.30;5.50;;;;;;;;;;4976179;28;20038;-86
2023/12/02 14:18:07;;;;;;;9.15;5.72;;;;;;;;;;4986267;28;20030;-85
2023/12/02 14:21:02;;;;;;;9.88;5.38;;;;;;;;;;4963078;28;20034;-84
2023/12/02 14:23:59;;;;;;;9.05;5.47;;;;;;;;;;4973709;28;20081;-83
2023/12/02 14:26:56;;;;;;;10.40;5.95;;;;;;;;;;4976160;28;20381;-84
2023/12/02 14:30:03;;;;;;;10.82;6.03;;;;;;;;;;4975451;28;20050;-86
2023/12/02 14:33:17;;;;;;;11.05;6.57;;;;;;;;;;4974730;28;20081;-85
2023/12/02 14:36:20;;;;;;;10.52;5.38;;;;;;;;;;4983047;28;20366;-86
2023/12/02 14:39:05;;;;;;;14.27;6.90;;;;;;;;;;4977043;28;20350;-86
2023/12/02 14:41:58;;;;;;;12.75;6.38;;;;;;;;;;4976521;28;20058;-84
2023/12/02 14:44:43;;;;;;;12.20;7.18;;;;;;;;;;4977386;28;20425;-85
2023/12/02 14:47:28;;;;;;;12.18;7.80;;;;;;;;;;4983710;28;20354;-85
2023/12/02 14:50:14;;;;;;;11.93;7.35;;;;;;;;;;4976350;28;20066;-86
2023/12/02 14:53:05;;;;;;;11.30;6.68;;;;;;;;;;4987816;28;20033;-83
2023/12/02 14:55:53;;;;;;;10.52;6.50;;;;;;;;;;4984508;28;20044;-87
2023/12/02 14:58:38;;;;;;;13.35;7.65;;;;;;;;;;4967359;28;20057;-78
2023/12/02 15:01:38;;;;;;;14.27;8.70;;;;;;;;;;5006241;28;20383;-81
2023/12/02 15:04:24;;;;;;;14.18;8.23;;;;;;;;;;4973251;28;20034;-82
2023/12/02 15:07:09;;;;;;;13.90;8.30;;;;;;;;;;4983777;28;20037;-82
2023/12/02 15:09:55;;;;;;;15.50;8.85;;;;;;;;;;4955551;28;20031;-82
2023/12/02 15:12:45;;;;;;;14.23;9.45;;;;;;;;;;4972451;28;20033;-82
2023/12/02 15:15:33;;;;;;;16.48;8.98;;;;;;;;;;4964925;28;20029;-84
2023/12/02 15:18:26;;;;;;;15.07;8.65;;;;;;;;;;4963537;28;20117;-83
2023/12/02 15:21:12;;;;;;;14.90;8.77;;;;;;;;;;4977148;28;20053;-79
2023/12/02 15:23:57;;;;;;;16.13;8.70;;;;;;;;;;4985922;28;20049;-83
2023/12/02 15:26:42;;;;;;;17.65;9.20;;;;;;;;;;4987784;28;20057;-83
2023/12/02 15:29:27;;;;;;;15.23;8.45;;;;;;;;;;4989325;28;20370;-84
2023/12/02 15:32:13;;;;;;;14.00;8.45;;;;;;;;;;4981270;28;20096;-82
2023/12/02 15:34:59;;;;;;;19.48;9.68;;;;;;;;;;4977942;28;20030;-80
2023/12/02 15:37:46;;;;;;;14.00;8.38;;;;;;;;;;4977576;28;20041;-78
2023/12/02 15:40:32;;;;;;;17.17;9.27;;;;;;;;;;4971125;28;20037;-78
2023/12/02 15:43:18;;;;;;;13.85;8.25;;;;;;;;;;4969018;28;20524;-79
2023/12/02 15:46:03;;;;;;;12.82;7.18;;;;;;;;;;4973005;28;20069;-79
2023/12/02 15:48:49;;;;;;;13.68;7.68;;;;;;;;;;4964330;28;20113;-81
2023/12/02 15:51:36;;;;;;;14.43;7.90;;;;;;;;;;4978661;28;20034;-79
2023/12/02 15:54:22;;;;;;;12.18;6.68;;;;;;;;;;4972646;28;20117;-79
2023/12/02 15:57:07;;;;;;;13.82;8.10;;;;;;;;;;4975184;28;20030;-78
2023/12/02 15:59:54;;;;;;;14.10;8.02;;;;;;;;;;4986744;28;20478;-78
2023/12/02 16:02:42;;;;;;;12.85;6.88;;;;;;;;;;4973319;28;20077;-80
2023/12/02 16:05:29;;;;;;;12.73;7.17;;;;;;;;;;4960513;28;20022;-78
2023/12/02 16:08:17;;;;;;;11.77;6.88;;;;;;;;;;4983045;28;20027;-78
2023/12/02 16:11:04;;;;;;;10.63;6.28;;;;;;;;;;4973543;28;20049;-77
2023/12/02 16:13:51;;;;;;;11.55;6.85;;;;;;;;;;4973847;28;20432;-78
2023/12/02 16:16:37;;;;;;;12.48;7.72;;;;;;;;;;4960591;28;20058;-78
2023/12/02 16:19:23;;;;;;;12.20;6.45;;;;;;;;;;4978441;28;20035;-78
2023/12/02 16:22:08;;;;;;;12.18;7.00;;;;;;;;;;4960635;28;20477;-78
2023/12/02 16:24:54;;;;;;;12.68;6.47;;;;;;;;;;4987844;28;20026;-78
2023/12/02 16:27:39;;;;;;;10.82;6.47;;;;;;;;;;4991869;28;20025;-80
2023/12/02 16:30:24;;;;;;;10.80;6.68;;;;;;;;;;4974744;28;20415;-78